createdAt,value
2018-03-25T00:00:57.149Z,7.10
2018-03-25T00:03:23.390Z,7.10
2018-03-25T00:05:49.934Z,7.10
2018-03-25T00:08:16.224Z,7.10
2018-03-25T00:10:42.441Z,7.10
2018-03-25T00:13:08.667Z,7.10
2018-03-25T00:15:34.886Z,7.10
2018-03-25T00:18:01.838Z,7.00
2018-03-25T00:20:28.902Z,7.00
2018-03-25T00:22:55.508Z,7.00
2018-03-25T00:25:21.777Z,7.00
2018-03-25T00:27:47.987Z,7.00
2018-03-25T00:30:14.209Z,7.00
2018-03-25T00:32:41.200Z,7.00
2018-03-25T00:35:07.428Z,7.00
2018-03-25T00:37:33.683Z,6.90
2018-03-25T00:39:59.909Z,7.00
2018-03-25T00:42:26.310Z,7.00
2018-03-25T00:44:52.537Z,7.00
2018-03-25T00:47:18.816Z,6.90
2018-03-25T00:49:45.813Z,6.90
2018-03-25T00:52:12.282Z,6.90
2018-03-25T00:54:38.518Z,6.90
2018-03-25T00:57:05.162Z,6.90
2018-03-25T00:59:31.398Z,6.90
2018-03-25T01:01:57.645Z,6.90
2018-03-25T01:04:24.877Z,6.80
2018-03-25T01:06:51.894Z,6.90
2018-03-25T01:09:18.342Z,6.90
2018-03-25T01:11:44.654Z,6.90
2018-03-25T01:14:10.886Z,6.90
2018-03-25T01:16:37.153Z,6.80
2018-03-25T01:19:04.120Z,6.80
2018-03-25T01:21:30.342Z,6.80
2018-03-25T01:23:57.394Z,6.80
2018-03-25T01:26:24.355Z,6.80
2018-03-25T01:28:50.568Z,6.80
2018-03-25T01:31:16.808Z,6.80
2018-03-25T01:33:43.070Z,6.80
2018-03-25T01:36:09.327Z,6.80
2018-03-25T01:38:35.564Z,6.80
2018-03-25T01:41:02.578Z,6.70
2018-03-25T01:43:28.830Z,6.70
2018-03-25T01:45:55.066Z,6.70
2018-03-25T01:48:21.330Z,6.70
2018-03-25T01:50:47.538Z,6.70
2018-03-25T01:53:13.781Z,6.70
2018-03-25T01:55:39.973Z,6.70
2018-03-25T01:58:06.265Z,6.70
2018-03-25T02:00:32.475Z,6.70
2018-03-25T02:02:58.840Z,6.70
2018-03-25T02:05:31.979Z,6.70
2018-03-25T02:07:58.583Z,6.70
2018-03-25T02:10:24.929Z,6.70
2018-03-25T02:12:51.184Z,6.60
2018-03-25T02:15:18.158Z,6.60
2018-03-25T02:17:44.403Z,6.60
2018-03-25T02:20:10.634Z,6.60
2018-03-25T02:22:36.913Z,6.60
2018-03-25T02:25:03.970Z,6.60
2018-03-25T02:27:30.253Z,6.60
2018-03-25T02:29:56.563Z,6.60
2018-03-25T02:32:22.807Z,6.60
2018-03-25T02:34:49.067Z,6.60
2018-03-25T02:37:15.312Z,6.60
2018-03-25T02:39:42.282Z,6.50
2018-03-25T02:42:08.512Z,6.50
2018-03-25T02:44:34.769Z,6.50
2018-03-25T02:47:01.026Z,6.50
2018-03-25T02:49:27.265Z,6.50
2018-03-25T02:51:54.338Z,6.50
2018-03-25T02:54:20.555Z,6.50
2018-03-25T02:56:46.901Z,6.50
2018-03-25T02:59:13.151Z,6.50
2018-03-25T03:01:39.545Z,6.50
2018-03-25T03:04:06.507Z,6.50
2018-03-25T03:06:32.820Z,6.40
2018-03-25T03:08:59.791Z,6.40
2018-03-25T03:11:26.013Z,6.40
2018-03-25T03:13:52.289Z,6.40
2018-03-25T03:16:18.538Z,6.40
2018-03-25T03:18:44.795Z,6.40
2018-03-25T03:21:11.595Z,6.40
2018-03-25T03:23:38.726Z,6.40
2018-03-25T03:26:04.986Z,6.40
2018-03-25T03:28:31.286Z,6.40
2018-03-25T03:30:57.491Z,6.40
2018-03-25T03:33:23.721Z,6.40
2018-03-25T03:35:49.952Z,6.40
2018-03-25T03:38:16.170Z,6.40
2018-03-25T03:40:42.366Z,6.40
2018-03-25T03:43:08.639Z,6.40
2018-03-25T03:45:34.859Z,6.30
2018-03-25T03:48:01.102Z,6.30
2018-03-25T03:50:27.393Z,6.30
2018-03-25T03:52:54.395Z,6.30
2018-03-25T03:55:20.652Z,6.30
2018-03-25T03:57:46.894Z,6.30
2018-03-25T04:00:13.861Z,6.20
2018-03-25T04:02:40.163Z,6.20
2018-03-25T04:05:06.806Z,6.20
2018-03-25T04:07:33.113Z,6.20
2018-03-25T04:09:59.328Z,6.20
2018-03-25T04:12:25.605Z,6.20
2018-03-25T04:14:52.675Z,6.20
2018-03-25T04:17:18.889Z,6.20
2018-03-25T04:19:45.855Z,6.20
2018-03-25T04:22:12.305Z,6.20
2018-03-25T04:24:38.527Z,6.20
2018-03-25T04:27:04.748Z,6.20
2018-03-25T04:29:31.444Z,6.10
2018-03-25T04:31:57.667Z,6.10
2018-03-25T04:34:23.909Z,6.20
2018-03-25T04:36:50.157Z,6.10
2018-03-25T04:39:16.426Z,6.10
2018-03-25T04:41:42.751Z,6.10
2018-03-25T04:44:08.982Z,6.10
2018-03-25T04:46:35.263Z,6.10
2018-03-25T04:49:02.224Z,6.00
2018-03-25T04:51:28.452Z,6.00
2018-03-25T04:53:55.470Z,6.00
2018-03-25T04:56:21.692Z,6.00
2018-03-25T04:58:47.989Z,6.10
2018-03-25T05:01:14.287Z,6.00
2018-03-25T05:03:41.717Z,6.00
2018-03-25T05:06:07.931Z,6.00
2018-03-25T05:08:34.160Z,6.00
2018-03-25T05:11:00.455Z,6.00
2018-03-25T05:13:26.665Z,6.00
2018-03-25T05:15:52.932Z,6.00
2018-03-25T05:18:19.925Z,5.90
2018-03-25T05:20:47.058Z,6.00
2018-03-25T05:23:13.385Z,5.90
2018-03-25T05:25:39.610Z,5.90
2018-03-25T05:28:05.872Z,5.90
2018-03-25T05:30:32.075Z,5.90
2018-03-25T05:32:58.287Z,5.90
2018-03-25T05:35:24.541Z,5.90
2018-03-25T05:37:50.818Z,5.90
2018-03-25T05:40:17.073Z,5.90
2018-03-25T05:42:43.344Z,5.90
2018-03-25T05:45:10.299Z,5.90
2018-03-25T05:47:37.312Z,5.90
2018-03-25T05:50:03.891Z,5.90
2018-03-25T05:52:30.195Z,5.90
2018-03-25T05:54:56.371Z,5.90
2018-03-25T05:57:22.590Z,5.90
2018-03-25T05:59:48.926Z,5.90
2018-03-25T06:02:15.221Z,5.90
2018-03-25T06:04:42.270Z,5.90
2018-03-25T06:07:09.284Z,5.90
2018-03-25T06:09:35.498Z,5.90
2018-03-25T06:12:01.735Z,5.90
2018-03-25T06:14:28.001Z,5.90
2018-03-25T06:16:55.007Z,5.90
2018-03-25T06:19:21.257Z,5.90
2018-03-25T06:21:47.599Z,5.90
2018-03-25T06:24:13.893Z,5.90
2018-03-25T06:26:40.287Z,5.90
2018-03-25T06:29:07.258Z,5.90
2018-03-25T06:31:33.501Z,5.90
2018-03-25T06:33:59.707Z,6.00
2018-03-25T06:36:25.908Z,5.90
2018-03-25T06:38:52.971Z,5.90
2018-03-25T06:41:19.223Z,5.90
2018-03-25T06:43:45.458Z,6.00
2018-03-25T06:46:11.943Z,6.00
2018-03-25T06:48:38.205Z,6.00
2018-03-25T06:51:04.510Z,6.00
2018-03-25T06:53:30.790Z,6.00
2018-03-25T06:55:57.055Z,6.10
2018-03-25T06:58:23.268Z,6.10
2018-03-25T07:00:49.502Z,6.10
2018-03-25T07:03:15.727Z,6.10
2018-03-25T07:05:41.986Z,6.10
2018-03-25T07:08:08.977Z,6.10
2018-03-25T07:10:35.334Z,6.10
2018-03-25T07:13:01.554Z,6.10
2018-03-25T07:15:27.831Z,6.20
2018-03-25T07:17:54.819Z,6.20
2018-03-25T07:20:21.038Z,6.20
2018-03-25T07:22:47.253Z,6.20
2018-03-25T07:25:13.749Z,6.20
2018-03-25T07:27:40.393Z,6.20
2018-03-25T07:30:07.406Z,6.30
2018-03-25T07:32:33.763Z,6.30
2018-03-25T07:35:00.048Z,6.30
2018-03-25T07:37:26.379Z,6.30
2018-03-25T07:39:52.610Z,6.30
2018-03-25T07:42:25.679Z,6.30
2018-03-25T07:44:51.951Z,6.40
2018-03-25T07:47:18.213Z,6.40
2018-03-25T07:49:45.161Z,6.40
2018-03-25T07:52:12.504Z,6.50
2018-03-25T07:54:38.810Z,6.40
2018-03-25T07:57:05.401Z,6.50
2018-03-25T07:59:32.361Z,6.50
2018-03-25T08:01:58.585Z,6.50
2018-03-25T08:04:24.853Z,6.60
2018-03-25T08:06:51.097Z,6.60
2018-03-25T08:09:17.330Z,6.60
2018-03-25T08:11:43.549Z,6.70
2018-03-25T08:14:09.796Z,6.70
2018-03-25T08:16:36.850Z,6.70
2018-03-25T08:19:03.906Z,6.80
2018-03-25T08:21:30.897Z,6.80
2018-03-25T08:23:57.218Z,6.80
2018-03-25T08:26:23.523Z,6.90
2018-03-25T08:28:50.628Z,6.90
2018-03-25T08:31:16.861Z,7.00
2018-03-25T08:33:43.092Z,7.00
2018-03-25T08:36:09.429Z,7.00
2018-03-25T08:38:35.891Z,7.10
2018-03-25T08:41:02.862Z,7.20
2018-03-25T08:43:29.819Z,7.20
2018-03-25T08:45:56.073Z,7.20
2018-03-25T08:48:22.285Z,7.20
2018-03-25T08:50:48.502Z,7.30
2018-03-25T08:53:14.709Z,7.30
2018-03-25T08:55:40.946Z,7.40
2018-03-25T08:58:07.465Z,7.40
2018-03-25T09:00:40.693Z,7.50
2018-03-25T09:03:06.921Z,7.50
2018-03-25T09:05:33.185Z,7.60
2018-03-25T09:07:59.454Z,7.60
2018-03-25T09:10:25.726Z,7.60
2018-03-25T09:12:51.954Z,7.70
2018-03-25T09:15:18.161Z,7.70
2018-03-25T09:17:51.432Z,7.80
2018-03-25T09:20:18.531Z,7.90
2018-03-25T09:22:44.857Z,7.90
2018-03-25T09:25:12.183Z,8.00
2018-03-25T09:27:38.452Z,8.00
2018-03-25T09:30:04.811Z,8.00
2018-03-25T09:32:31.484Z,8.10
2018-03-25T09:34:57.755Z,8.10
2018-03-25T09:37:24.776Z,8.20
2018-03-25T09:39:51.008Z,8.20
2018-03-25T09:42:17.446Z,8.30
2018-03-25T09:44:43.783Z,8.40
2018-03-25T09:47:09.988Z,8.40
2018-03-25T09:49:36.298Z,8.40
2018-03-25T09:52:03.276Z,8.50
2018-03-25T09:54:29.519Z,8.50
2018-03-25T09:56:55.758Z,8.60
2018-03-25T09:59:22.022Z,8.60
2018-03-25T10:01:55.099Z,8.80
2018-03-25T10:04:21.375Z,8.70
2018-03-25T10:06:47.649Z,8.80
2018-03-25T10:09:13.905Z,8.80
2018-03-25T10:11:40.972Z,9.00
2018-03-25T10:14:07.211Z,9.00
2018-03-25T10:16:33.467Z,9.00
2018-03-25T10:18:59.951Z,9.10
2018-03-25T10:21:26.912Z,9.20
2018-03-25T10:23:53.146Z,9.20
2018-03-25T10:26:20.185Z,9.30
2018-03-25T10:28:46.389Z,9.30
2018-03-25T10:31:13.357Z,9.40
2018-03-25T10:33:42.765Z,9.50
2018-03-25T10:36:09.037Z,9.50
2018-03-25T10:38:35.447Z,9.60
2018-03-25T10:41:01.878Z,9.60
2018-03-25T10:43:28.127Z,9.70
2018-03-25T10:45:54.600Z,9.80
2018-03-25T10:48:21.563Z,9.90
2018-03-25T10:50:48.576Z,10.00
2018-03-25T10:53:14.867Z,9.90
2018-03-25T10:55:41.124Z,10.00
2018-03-25T10:58:08.321Z,10.10
2018-03-25T11:00:34.566Z,10.10
2018-03-25T11:03:01.130Z,10.20
2018-03-25T11:05:27.486Z,10.20
2018-03-25T11:07:53.778Z,10.30
2018-03-25T11:10:19.999Z,10.40
2018-03-25T11:12:46.250Z,10.40
2018-03-25T11:15:12.505Z,10.50
2018-03-25T11:17:38.787Z,10.50
2018-03-25T11:20:05.210Z,10.60
2018-03-25T11:22:31.506Z,10.70
2018-03-25T11:24:57.736Z,10.70
2018-03-25T11:27:24.731Z,10.80
2018-03-25T11:29:51.090Z,10.80
2018-03-25T11:32:17.561Z,10.90
2018-03-25T11:34:44.960Z,11.00
2018-03-25T11:37:11.176Z,11.00
2018-03-25T11:39:37.455Z,11.10
2018-03-25T11:42:03.815Z,11.10
2018-03-25T11:44:30.779Z,11.20
2018-03-25T11:46:57.029Z,11.20
2018-03-25T11:49:23.266Z,11.30
2018-03-25T11:51:49.519Z,11.30
2018-03-25T11:54:15.862Z,11.40
2018-03-25T11:56:43.261Z,11.50
2018-03-25T11:59:09.571Z,11.50
2018-03-25T12:01:36.034Z,11.50
2018-03-25T12:04:02.320Z,11.60
2018-03-25T12:06:29.276Z,11.60
2018-03-25T12:08:56.622Z,11.70
2018-03-25T12:11:22.821Z,11.60
2018-03-25T12:13:49.129Z,11.70
2018-03-25T12:16:15.344Z,11.70
2018-03-25T12:18:41.590Z,11.70
2018-03-25T12:21:07.953Z,11.80
2018-03-25T12:23:35.074Z,11.90
2018-03-25T12:26:01.327Z,11.90
2018-03-25T12:28:27.674Z,11.90
2018-03-25T12:31:08.720Z,11.90
2018-03-25T12:33:35.020Z,12.00
2018-03-25T12:36:02.450Z,12.00
2018-03-25T12:38:29.412Z,12.10
2018-03-25T12:40:55.629Z,12.10
2018-03-25T12:43:22.678Z,12.10
2018-03-25T12:45:49.645Z,12.20
2018-03-25T12:48:15.882Z,12.20
2018-03-25T12:50:42.116Z,12.20
2018-03-25T12:53:08.342Z,12.20
2018-03-25T12:55:34.922Z,12.20
2018-03-25T12:58:01.152Z,12.30
2018-03-25T13:00:27.472Z,12.30
2018-03-25T13:02:53.710Z,12.40
2018-03-25T13:05:19.926Z,12.40
2018-03-25T13:07:46.213Z,12.40
2018-03-25T13:10:12.442Z,12.40
2018-03-25T13:12:38.694Z,12.40
2018-03-25T13:15:04.941Z,12.50
2018-03-25T13:17:31.186Z,12.50
2018-03-25T13:19:57.423Z,12.50
2018-03-25T13:22:23.668Z,12.50
2018-03-25T13:24:49.893Z,12.50
2018-03-25T13:27:16.864Z,12.50
2018-03-25T13:29:43.118Z,12.50
2018-03-25T13:32:09.444Z,12.60
2018-03-25T13:34:35.699Z,12.50
2018-03-25T13:37:02.050Z,12.60
2018-03-25T13:39:28.377Z,12.60
2018-03-25T13:41:54.630Z,12.60
2018-03-25T13:44:21.606Z,12.50
2018-03-25T13:46:47.905Z,12.50
2018-03-25T13:49:14.924Z,12.50
2018-03-25T13:51:41.179Z,12.50
2018-03-25T13:54:07.531Z,12.50
2018-03-25T13:56:33.766Z,12.60
2018-03-25T13:59:00.464Z,12.50
2018-03-25T14:01:27.551Z,12.60
2018-03-25T14:03:53.903Z,12.50
2018-03-25T14:06:20.129Z,12.60
2018-03-25T14:08:46.378Z,12.50
2018-03-25T14:11:12.632Z,12.50
2018-03-25T14:13:38.965Z,12.50
2018-03-25T14:16:05.297Z,12.50
2018-03-25T14:18:31.507Z,12.40
2018-03-25T14:20:57.718Z,12.40
2018-03-25T14:23:23.966Z,12.30
2018-03-25T14:25:50.305Z,12.30
2018-03-25T14:28:16.526Z,12.30
2018-03-25T14:30:42.912Z,12.30
2018-03-25T14:33:09.112Z,12.30
2018-03-25T14:35:36.198Z,12.20
2018-03-25T14:38:02.489Z,12.20
2018-03-25T14:40:29.069Z,12.20
2018-03-25T14:42:55.306Z,12.10
2018-03-25T14:45:21.740Z,12.10
2018-03-25T14:47:47.981Z,12.10
2018-03-25T14:50:14.210Z,12.10
2018-03-25T14:52:40.629Z,12.10
2018-03-25T14:55:06.934Z,12.00
2018-03-25T14:57:33.226Z,12.00
2018-03-25T14:59:59.633Z,12.00
2018-03-25T15:02:25.858Z,12.00
2018-03-25T15:04:52.130Z,12.00
2018-03-25T15:07:18.408Z,11.90
2018-03-25T15:09:44.664Z,11.90
2018-03-25T15:12:11.015Z,11.90
2018-03-25T15:14:37.310Z,11.90
2018-03-25T15:17:03.582Z,11.80
2018-03-25T15:19:30.644Z,11.90
2018-03-25T15:21:57.858Z,11.80
2018-03-25T15:24:24.282Z,11.80
2018-03-25T15:26:51.307Z,11.80
2018-03-25T15:29:17.525Z,11.80
2018-03-25T15:31:43.866Z,11.80
2018-03-25T15:34:10.129Z,11.70
2018-03-25T15:36:36.498Z,11.70
2018-03-25T15:39:02.857Z,11.70
2018-03-25T15:41:29.152Z,11.70
2018-03-25T15:43:56.282Z,11.70
2018-03-25T15:46:22.532Z,11.70
2018-03-25T15:48:50.277Z,11.70
2018-03-25T15:51:16.493Z,11.70
2018-03-25T15:53:42.818Z,11.60
2018-03-25T15:56:09.554Z,11.60
2018-03-25T15:58:35.789Z,11.60
2018-03-25T16:01:02.162Z,11.50
2018-03-25T16:03:29.104Z,11.50
2018-03-25T16:05:56.155Z,11.50
2018-03-25T16:08:23.229Z,11.40
2018-03-25T16:10:49.825Z,11.40
2018-03-25T16:13:16.213Z,11.40
2018-03-25T16:15:42.484Z,11.40
2018-03-25T16:18:09.393Z,11.30
2018-03-25T16:20:36.737Z,11.30
2018-03-25T16:23:03.094Z,11.30
2018-03-25T16:25:29.405Z,11.30
2018-03-25T16:27:55.728Z,11.30
2018-03-25T16:30:21.943Z,11.20
2018-03-25T16:32:50.297Z,11.10
2018-03-25T16:35:16.529Z,11.10
2018-03-25T16:37:42.768Z,11.10
2018-03-25T16:40:10.622Z,11.00
2018-03-25T16:42:36.851Z,11.00
2018-03-25T16:45:03.123Z,11.00
2018-03-25T16:47:29.443Z,11.00
2018-03-25T16:49:55.722Z,10.90
2018-03-25T16:52:21.988Z,10.80
2018-03-25T16:54:48.227Z,10.80
2018-03-25T16:57:15.341Z,10.70
2018-03-25T16:59:41.550Z,10.70
2018-03-25T17:02:08.325Z,10.70
2018-03-25T17:04:35.438Z,10.70
2018-03-25T17:07:01.686Z,10.60
2018-03-25T17:09:27.901Z,10.60
2018-03-25T17:11:54.278Z,10.60
2018-03-25T17:14:21.755Z,10.60
2018-03-25T17:16:48.063Z,10.60
2018-03-25T17:19:16.266Z,10.50
2018-03-25T17:21:42.556Z,10.40
2018-03-25T17:24:08.871Z,10.40
2018-03-25T17:26:35.116Z,10.40
2018-03-25T17:29:01.358Z,10.30
2018-03-25T17:31:28.438Z,10.30
2018-03-25T17:33:54.795Z,10.30
2018-03-25T17:36:21.237Z,10.30
2018-03-25T17:38:47.520Z,10.30
2018-03-25T17:41:13.732Z,10.20
2018-03-25T17:43:40.805Z,10.10
2018-03-25T17:46:07.218Z,10.10
2018-03-25T17:48:34.315Z,10.00
2018-03-25T17:51:00.614Z,10.00
2018-03-25T17:53:26.884Z,10.00
2018-03-25T17:55:53.144Z,10.00
2018-03-25T17:58:19.549Z,10.00
2018-03-25T18:00:46.222Z,9.90
2018-03-25T18:03:12.484Z,9.90
2018-03-25T18:05:38.965Z,9.80
2018-03-25T18:08:05.359Z,9.80
2018-03-25T18:10:31.732Z,9.80
2018-03-25T18:12:58.203Z,9.80
2018-03-25T18:15:26.812Z,9.80
2018-03-25T18:17:54.118Z,9.70
2018-03-25T18:20:20.482Z,9.70
2018-03-25T18:22:47.054Z,9.70
2018-03-25T18:25:13.430Z,9.70
2018-03-25T18:27:40.418Z,9.60
2018-03-25T18:30:06.699Z,9.60
2018-03-25T18:32:32.917Z,9.60
2018-03-25T18:34:59.159Z,9.60
2018-03-25T18:37:25.355Z,9.50
2018-03-25T18:39:51.699Z,9.50
2018-03-25T18:42:18.138Z,9.40
2018-03-25T18:44:44.390Z,9.40
2018-03-25T18:47:11.739Z,9.30
2018-03-25T18:49:38.731Z,9.30
2018-03-25T18:52:04.961Z,9.30
2018-03-25T18:54:31.332Z,9.30
2018-03-25T18:56:57.713Z,9.30
2018-03-25T18:59:24.041Z,9.30
2018-03-25T19:01:50.253Z,9.30
2018-03-25T19:04:17.295Z,9.20
2018-03-25T19:06:44.268Z,9.20
2018-03-25T19:09:10.488Z,9.20
2018-03-25T19:11:37.644Z,9.10
2018-03-25T19:14:03.894Z,9.00
2018-03-25T19:16:30.115Z,9.00
2018-03-25T19:18:56.420Z,9.00
2018-03-25T19:21:23.407Z,8.90
2018-03-25T19:23:49.658Z,8.90
2018-03-25T19:26:15.934Z,8.90
2018-03-25T19:28:42.283Z,8.80
2018-03-25T19:31:08.660Z,8.80
2018-03-25T19:33:34.863Z,8.80
2018-03-25T19:36:02.621Z,8.80
2018-03-25T19:38:28.842Z,8.80
2018-03-25T19:40:55.123Z,8.70
2018-03-25T19:43:21.334Z,8.70
2018-03-25T19:45:47.583Z,8.60
2018-03-25T19:48:14.557Z,8.60
2018-03-25T19:50:40.861Z,8.60
2018-03-25T19:53:07.100Z,8.60
2018-03-25T19:55:34.133Z,8.50
2018-03-25T19:58:00.339Z,8.50
2018-03-25T20:00:26.630Z,8.50
2018-03-25T20:02:52.871Z,8.50
2018-03-25T20:05:19.313Z,8.50
2018-03-25T20:07:45.537Z,8.40
2018-03-25T20:10:11.845Z,8.40
2018-03-25T20:12:38.072Z,8.40
2018-03-25T20:15:04.326Z,8.30
2018-03-25T20:17:30.688Z,8.40
2018-03-25T20:19:56.907Z,8.30
2018-03-25T20:22:23.136Z,8.30
2018-03-25T20:24:49.422Z,8.30
2018-03-25T20:27:16.435Z,8.20
2018-03-25T20:29:42.668Z,8.20
2018-03-25T20:32:08.865Z,8.20
2018-03-25T20:34:35.227Z,8.10
2018-03-25T20:37:01.461Z,8.10
2018-03-25T20:39:27.906Z,8.10
2018-03-25T20:41:54.975Z,8.00
2018-03-25T20:44:21.290Z,8.00
2018-03-25T20:46:48.278Z,7.90
2018-03-25T20:49:14.849Z,7.90
2018-03-25T20:51:41.071Z,7.90
2018-03-25T20:54:07.321Z,7.90
2018-03-25T20:56:33.607Z,7.90
2018-03-25T20:58:59.845Z,7.90
2018-03-25T21:01:26.076Z,7.80
2018-03-25T21:03:52.308Z,7.80
2018-03-25T21:06:18.513Z,7.80
2018-03-25T21:08:44.853Z,7.70
2018-03-25T21:11:18.208Z,7.70
2018-03-25T21:13:45.414Z,7.60
2018-03-25T21:16:11.618Z,7.60
2018-03-25T21:18:37.875Z,7.70
2018-03-25T21:21:04.288Z,7.60
2018-03-25T21:23:30.511Z,7.60
2018-03-25T21:25:56.713Z,7.60
2018-03-25T21:28:22.988Z,7.60
2018-03-25T21:30:49.298Z,7.50
2018-03-25T21:33:15.522Z,7.50
2018-03-25T21:35:41.786Z,7.50
2018-03-25T21:38:08.738Z,7.40
2018-03-25T21:40:34.976Z,7.40
2018-03-25T21:43:01.224Z,7.40
2018-03-25T21:45:28.203Z,7.30
2018-03-25T21:47:54.427Z,7.30
2018-03-25T21:50:20.697Z,7.30
2018-03-25T21:52:46.910Z,7.30
2018-03-25T21:55:13.154Z,7.30
2018-03-25T21:57:39.370Z,7.30
2018-03-25T22:00:05.648Z,7.30
2018-03-25T22:02:32.602Z,7.30
2018-03-25T22:04:59.590Z,7.30
2018-03-25T22:07:26.047Z,7.30
2018-03-25T22:09:52.402Z,7.30
2018-03-25T22:12:19.357Z,7.30
2018-03-25T22:14:46.318Z,7.30
2018-03-25T22:17:12.553Z,7.20
2018-03-25T22:19:38.775Z,7.20
2018-03-25T22:22:05.366Z,7.20
2018-03-25T22:24:31.586Z,7.20
2018-03-25T22:26:57.940Z,7.10
2018-03-25T22:29:24.197Z,7.10
2018-03-25T22:31:50.455Z,7.10
2018-03-25T22:34:16.710Z,7.10
2018-03-25T22:36:42.933Z,7.10
2018-03-25T22:39:09.208Z,7.10
2018-03-25T22:41:36.212Z,7.00
2018-03-25T22:44:02.454Z,7.00
2018-03-25T22:46:28.691Z,7.00
2018-03-25T22:48:54.913Z,7.00
2018-03-25T22:51:21.279Z,7.00
2018-03-25T22:53:48.240Z,6.90
2018-03-25T22:56:14.475Z,6.90
2018-03-25T22:58:40.737Z,6.90
2018-03-25T23:01:06.972Z,6.90
2018-03-25T23:03:33.229Z,7.00
2018-03-25T23:06:00.208Z,6.90
2018-03-25T23:08:26.559Z,6.90
2018-03-25T23:10:52.785Z,6.90
2018-03-25T23:13:19.222Z,6.90
2018-03-25T23:15:45.427Z,6.90
2018-03-25T23:18:11.699Z,6.90
2018-03-25T23:20:37.960Z,6.90
2018-03-25T23:23:04.905Z,6.80
2018-03-25T23:25:31.906Z,6.80
2018-03-25T23:27:58.123Z,6.80
2018-03-25T23:30:24.450Z,6.80
2018-03-25T23:32:50.743Z,6.80
2018-03-25T23:35:17.002Z,6.80
2018-03-25T23:40:35.170Z,6.70
2018-03-25T23:43:01.420Z,6.70
2018-03-25T23:45:27.636Z,6.70
2018-03-25T23:47:53.872Z,6.70
2018-03-25T23:50:20.082Z,6.70
2018-03-25T23:52:46.303Z,6.60
2018-03-25T23:55:12.538Z,6.70
2018-03-25T23:57:38.760Z,6.70
